Time;durP1;ratioP1;P1;durP2;ratioP2;P2;SDS_P1;SDS_P2;PMS_P1;PMS_P2;Temp;Humidity;BMP_temperature;BMP_pressure;BME280_temperature;BME280_humidity;BME280_pressure;Samples;Min_cycle;Max_cycle;Signal;HPM_P1;HPM_P2
2021/03/16 00:00:07;;;;;;;25.73;3.95;;;;;;;5.43;100.00;102085.09;5076429;28;20048;-63
2021/03/16 00:02:33;;;;;;;21.58;3.03;;;;;;;5.47;100.00;102085.81;5081603;28;20052;-63
2021/03/16 00:04:59;;;;;;;25.08;4.03;;;;;;;5.46;100.00;102089.41;5079728;28;20079;-62
2021/03/16 00:07:25;;;;;;;20.00;3.90;;;;;;;5.44;100.00;102087.69;5076395;28;20492;-62
2021/03/16 00:09:51;;;;;;;19.30;2.90;;;;;;;5.52;100.00;102089.13;5079624;28;20186;-62
2021/03/16 00:12:17;;;;;;;19.70;3.33;;;;;;;5.50;100.00;102081.19;5078098;28;20056;-63
2021/03/16 00:17:10;;;;;;;19.48;2.63;;;;;;;5.47;100.00;102092.03;5046103;23;20052;-61
2021/03/16 00:19:36;;;;;;;18.17;2.90;;;;;;;5.48;100.00;102088.41;5060432;28;20053;-62
2021/03/16 00:22:03;;;;;;;18.80;3.10;;;;;;;5.39;100.00;102086.19;5058858;28;20048;-62
2021/03/16 00:24:29;;;;;;;20.55;3.55;;;;;;;5.38;100.00;102087.13;5058599;28;20041;-62
2021/03/16 00:26:56;;;;;;;22.52;3.05;;;;;;;5.42;100.00;102088.72;5056558;28;20109;-62
2021/03/16 00:29:22;;;;;;;24.02;3.60;;;;;;;5.46;100.00;102090.28;5053457;28;20052;-62
2021/03/16 00:31:48;;;;;;;16.80;2.97;;;;;;;5.51;100.00;102100.78;5057712;28;20464;-63
2021/03/16 00:34:14;;;;;;;24.50;4.22;;;;;;;5.50;100.00;102093.69;5054523;28;20128;-63
2021/03/16 00:36:40;;;;;;;24.33;3.00;;;;;;;5.42;100.00;102107.41;5057485;28;20489;-62
2021/03/16 00:39:06;;;;;;;19.83;3.75;;;;;;;5.43;100.00;102101.09;5054392;28;20045;-63
2021/03/16 00:41:32;;;;;;;16.52;3.13;;;;;;;5.47;100.00;102097.34;5059149;28;20440;-63
2021/03/16 00:43:59;;;;;;;21.52;3.10;;;;;;;5.41;100.00;102109.19;5058474;28;20064;-62
2021/03/16 00:46:25;;;;;;;19.58;3.60;;;;;;;5.40;100.00;102106.59;5057846;28;20052;-62
2021/03/16 00:48:51;;;;;;;14.63;2.75;;;;;;;5.36;100.00;102105.88;5057216;28;20040;-62
2021/03/16 00:51:17;;;;;;;23.55;3.13;;;;;;;5.36;100.00;102105.00;5057742;28;20064;-63
2021/03/16 00:53:43;;;;;;;20.65;2.35;;;;;;;5.37;100.00;102110.25;5057321;28;20098;-62
2021/03/16 00:56:09;;;;;;;21.90;3.78;;;;;;;5.40;100.00;102106.59;5061090;28;20048;-62
2021/03/16 00:58:35;;;;;;;17.30;3.13;;;;;;;5.38;100.00;102108.47;5071137;23;20571;-63
2021/03/16 01:01:05;;;;;;;19.02;3.60;;;;;;;5.35;100.00;102104.13;4998830;28;20060;-63
2021/03/16 01:03:31;;;;;;;18.67;3.45;;;;;;;5.30;100.00;102111.50;4999525;28;20054;-62
2021/03/16 01:05:57;;;;;;;18.63;3.03;;;;;;;5.31;100.00;102115.91;5016257;28;20046;-62
2021/03/16 01:08:23;;;;;;;11.63;2.67;;;;;;;5.31;100.00;102113.22;5017811;28;20136;-62
2021/03/16 01:10:51;;;;;;;19.27;3.40;;;;;;;5.30;100.00;102121.31;5019726;28;20196;-62
2021/03/16 01:13:18;;;;;;;22.25;3.53;;;;;;;5.33;100.00;102116.72;5017261;28;20107;-62
2021/03/16 01:15:44;;;;;;;17.70;4.18;;;;;;;5.36;100.00;102127.25;5019200;28;20050;-62
2021/03/16 01:18:12;;;;;;;19.50;2.95;;;;;;;5.40;100.00;102122.59;5016658;28;20057;-62
2021/03/16 01:20:38;;;;;;;20.65;2.90;;;;;;;5.38;100.00;102120.00;5009498;28;20085;-62
2021/03/16 01:23:04;;;;;;;14.48;3.15;;;;;;;5.36;100.00;102124.56;4997386;28;20054;-63
2021/03/16 01:25:30;;;;;;;21.83;3.00;;;;;;;5.33;100.00;102131.84;5002992;28;20490;-63
2021/03/16 01:27:56;;;;;;;15.70;2.72;;;;;;;5.29;100.00;102127.59;5017606;28;20058;-62
2021/03/16 01:30:24;;;;;;;15.68;3.03;;;;;;;5.33;100.00;102129.16;5016420;28;20057;-63
2021/03/16 01:32:50;;;;;;;19.52;2.90;;;;;;;5.37;100.00;102128.09;5019739;28;20045;-62
2021/03/16 01:35:16;;;;;;;16.60;3.00;;;;;;;5.39;100.00;102126.25;5018702;28;20058;-61
2021/03/16 01:37:43;;;;;;;16.60;3.13;;;;;;;5.36;100.00;102131.69;5016016;28;20046;-62
2021/03/16 01:40:11;;;;;;;18.80;3.65;;;;;;;5.33;100.00;102121.16;5018248;28;20041;-62
2021/03/16 01:42:37;;;;;;;8.75;2.35;;;;;;;5.35;100.00;102128.16;5017755;28;20062;-63
2021/03/16 01:45:08;;;;;;;20.50;2.80;;;;;;;5.31;100.00;102128.38;5017080;28;20050;-61
2021/03/16 01:47:34;;;;;;;17.10;2.83;;;;;;;5.32;100.00;102130.13;5016947;28;20046;-62
2021/03/16 01:50:02;;;;;;;15.80;2.42;;;;;;;5.32;100.00;102128.31;5020039;28;20125;-63
2021/03/16 01:52:29;;;;;;;13.98;3.00;;;;;;;5.36;100.00;102139.69;5018688;28;20042;-63
2021/03/16 01:54:56;;;;;;;16.77;2.85;;;;;;;5.37;100.00;102141.44;5019433;28;20041;-63
2021/03/16 01:57:25;;;;;;;16.80;3.22;;;;;;;5.35;100.00;102140.66;5018353;28;21078;-63
2021/03/16 01:59:51;;;;;;;23.63;3.17;;;;;;;5.28;100.00;102139.22;5017812;28;20054;-63
2021/03/16 02:02:17;;;;;;;19.15;2.90;;;;;;;5.21;100.00;102143.94;5018109;28;20060;-63
2021/03/16 02:04:42;;;;;;;14.70;2.70;;;;;;;5.21;100.00;102139.50;5019877;28;20447;-62
2021/03/16 02:07:14;;;;;;;13.60;2.47;;;;;;;5.25;100.00;102141.06;5020898;28;20064;-63
2021/03/16 02:09:45;;;;;;;11.82;2.35;;;;;;;5.28;100.00;102133.88;5021872;28;20041;-62
2021/03/16 02:12:15;;;;;;;17.20;2.97;;;;;;;5.25;100.00;102130.38;5012211;28;20077;-63
2021/03/16 02:14:45;;;;;;;16.10;2.63;;;;;;;5.29;100.00;102130.28;5002127;28;20400;-63
2021/03/16 02:17:14;;;;;;;9.10;2.10;;;;;;;5.23;100.00;102124.25;5001337;28;20085;-62
2021/03/16 02:20:07;;;;;;;15.88;2.47;;;;;;;5.21;100.00;102134.16;5002452;28;20049;-62
2021/03/16 02:22:36;;;;;;;14.85;2.75;;;;;;;5.23;100.00;102137.63;5007240;28;20045;-63
2021/03/16 02:25:11;;;;;;;18.75;2.95;;;;;;;5.15;100.00;102129.06;5018613;28;20042;-63
2021/03/16 02:27:54;;;;;;;18.27;2.72;;;;;;;5.19;100.00;102136.00;5022010;28;20495;-63
2021/03/16 02:30:21;;;;;;;15.38;2.90;;;;;;;5.18;100.00;102134.31;5021847;28;20057;-62
2021/03/16 02:32:50;;;;;;;22.83;3.05;;;;;;;5.24;100.00;102133.13;5022473;28;20061;-63
2021/03/16 02:35:18;;;;;;;13.38;2.17;;;;;;;5.15;100.00;102145.09;5008736;28;20059;-62
2021/03/16 02:37:46;;;;;;;18.80;2.75;;;;;;;5.09;100.00;102132.03;5013605;28;20652;-62
2021/03/16 02:40:16;;;;;;;21.98;3.35;;;;;;;5.10;100.00;102136.44;5021532;28;20045;-62
2021/03/16 02:42:43;;;;;;;16.45;3.13;;;;;;;5.07;100.00;102136.56;5022375;28;20057;-62
2021/03/16 02:45:10;;;;;;;19.08;2.95;;;;;;;5.03;100.00;102132.31;5019881;28;20491;-62
2021/03/16 02:47:39;;;;;;;20.67;3.20;;;;;;;5.08;100.00;102139.19;5021156;28;20295;-62
2021/03/16 02:50:07;;;;;;;17.75;3.25;;;;;;;5.01;100.00;102137.72;5022077;28;20487;-62
2021/03/16 02:52:35;;;;;;;23.23;2.83;;;;;;;5.05;100.00;102135.75;5016913;28;20038;-62
2021/03/16 02:55:02;;;;;;;11.93;3.17;;;;;;;5.06;100.00;102146.41;5021533;28;20061;-60
2021/03/16 02:57:30;;;;;;;22.02;3.67;;;;;;;5.07;100.00;102142.78;5019588;28;20044;-62
2021/03/16 03:00:01;;;;;;;19.48;2.97;;;;;;;5.05;100.00;102144.66;5020212;28;20057;-62
2021/03/16 03:02:28;;;;;;;24.73;3.42;;;;;;;5.05;100.00;102138.44;5021131;28;20057;-62
2021/03/16 03:04:56;;;;;;;19.10;3.90;;;;;;;5.09;100.00;102150.72;5020477;28;20528;-61
2021/03/16 03:07:23;;;;;;;20.65;3.35;;;;;;;5.05;100.00;102143.75;5004029;28;20057;-62
2021/03/16 03:09:50;;;;;;;15.63;2.80;;;;;;;5.03;100.00;102151.84;5020732;28;20046;-63
2021/03/16 03:12:15;;;;;;;23.48;3.50;;;;;;;5.04;100.00;102147.38;5020298;28;20050;-62
2021/03/16 03:14:41;;;;;;;19.42;3.53;;;;;;;5.08;100.00;102154.34;5020400;28;20106;-62
2021/03/16 03:17:08;;;;;;;15.45;3.08;;;;;;;5.06;100.00;102164.19;5019616;28;20050;-63
2021/03/16 03:19:34;;;;;;;22.70;4.10;;;;;;;5.06;100.00;102159.75;5021770;28;20079;-62
2021/03/16 03:22:10;;;;;;;17.80;4.13;;;;;;;5.04;100.00;102158.06;5021544;28;20080;-63
2021/03/16 03:24:41;;;;;;;17.10;2.95;;;;;;;5.00;100.00;102168.00;5016193;28;20054;-63
2021/03/16 03:27:14;;;;;;;27.40;3.88;;;;;;;4.95;100.00;102164.69;5010168;28;20049;-62
2021/03/16 03:29:42;;;;;;;18.10;3.10;;;;;;;4.96;100.00;102171.75;5001100;28;20049;-62
2021/03/16 03:32:09;;;;;;;18.33;3.42;;;;;;;4.95;100.00;102163.78;4999118;28;20057;-61
2021/03/16 03:34:36;;;;;;;19.48;2.80;;;;;;;4.97;100.00;102167.28;5015217;28;20503;-62
2021/03/16 03:37:04;;;;;;;23.08;3.47;;;;;;;4.91;100.00;102163.94;5016871;28;20058;-62
2021/03/16 03:39:33;;;;;;;18.07;2.87;;;;;;;4.93;100.00;102171.00;5020523;28;20057;-62
2021/03/16 03:42:00;;;;;;;24.47;3.20;;;;;;;4.90;100.00;102175.56;5021578;28;20156;-62
2021/03/16 03:44:29;;;;;;;14.45;2.88;;;;;;;4.87;100.00;102177.47;5019734;28;20049;-62
2021/03/16 03:46:55;;;;;;;;;;;;;;;4.86;100.00;102187.28;5021619;28;20045;-62
2021/03/16 03:49:23;;;;;;;20.55;3.20;;;;;;;4.80;100.00;102182.22;5019204;28;19929;-62
2021/03/16 03:51:50;;;;;;;12.18;2.55;;;;;;;4.81;100.00;102194.59;5021053;28;20491;-62
2021/03/16 03:54:19;;;;;;;21.60;3.70;;;;;;;4.83;100.00;102191.88;5021589;28;20096;-62
2021/03/16 03:56:46;;;;;;;18.65;2.85;;;;;;;4.87;100.00;102197.03;5020653;28;20047;-62
2021/03/16 03:59:14;;;;;;;22.67;3.40;;;;;;;4.88;100.00;102196.06;5015116;28;20055;-61
2021/03/16 04:01:41;;;;;;;22.90;3.40;;;;;;;4.96;100.00;102201.09;5014554;28;20415;-62
2021/03/16 04:04:07;;;;;;;16.13;3.00;;;;;;;4.94;100.00;102196.75;5020804;28;20069;-61
2021/03/16 04:06:33;;;;;;;27.30;2.85;;;;;;;4.96;100.00;102205.56;5019670;28;20050;-62
2021/03/16 04:08:59;;;;;;;23.95;3.90;;;;;;;4.89;100.00;102204.97;5019723;28;20045;-63
2021/03/16 04:11:27;;;;;;;16.65;2.80;;;;;;;4.90;100.00;102206.69;5020296;28;20078;-62
2021/03/16 04:13:53;;;;;;;21.90;3.72;;;;;;;4.86;100.00;102200.63;5018698;28;20056;-63
2021/03/16 04:16:20;;;;;;;18.70;2.97;;;;;;;4.89;100.00;102203.16;5013446;28;20050;-63
2021/03/16 04:18:47;;;;;;;24.15;3.33;;;;;;;4.84;100.00;102210.47;5019201;28;20069;-62
2021/03/16 04:21:15;;;;;;;19.20;3.25;;;;;;;4.83;100.00;102202.53;5019228;28;20528;-61
2021/03/16 04:23:41;;;;;;;21.42;2.95;;;;;;;4.81;100.00;102210.59;5020150;28;20056;-62
2021/03/16 04:26:07;;;;;;;21.60;3.05;;;;;;;4.82;100.00;102217.69;5000003;28;20062;-62
2021/03/16 04:28:34;;;;;;;19.40;3.20;;;;;;;4.79;100.00;102215.16;5011088;28;20497;-62
2021/03/16 04:31:01;;;;;;;18.95;2.80;;;;;;;4.86;100.00;102224.63;5019403;28;20047;-63
2021/03/16 04:35:56;;;;;;;20.70;2.95;;;;;;;4.81;100.00;102223.94;5074183;22;20055;-62
2021/03/16 04:38:22;;;;;;;26.08;2.75;;;;;;;4.83;100.00;102222.09;5038031;28;20473;-62
2021/03/16 04:40:48;;;;;;;21.27;3.03;;;;;;;4.90;100.00;102214.69;5072761;22;20052;-63
2021/03/16 04:43:14;;;;;;;15.13;3.22;;;;;;;4.87;100.00;102226.38;5066840;28;20506;-62
2021/03/16 04:45:41;;;;;;;18.63;2.97;;;;;;;4.93;100.00;102221.69;5064330;28;20738;-63
2021/03/16 04:48:07;;;;;;;17.50;2.50;;;;;;;4.84;100.00;102220.28;5073436;28;20048;-62
2021/03/16 04:50:33;;;;;;;18.42;3.38;;;;;;;4.81;100.00;102223.94;5059178;28;20045;-62
2021/03/16 04:52:59;;;;;;;12.68;3.05;;;;;;;4.82;100.00;102227.50;5058150;28;20060;-62
2021/03/16 04:55:25;;;;;;;23.30;3.20;;;;;;;4.85;100.00;102227.38;5057991;28;20056;-62
2021/03/16 04:57:52;;;;;;;25.10;3.50;;;;;;;4.86;100.00;102224.63;5058477;28;20575;-62
2021/03/16 05:00:19;;;;;;;23.63;2.85;;;;;;;4.84;100.00;102233.63;5073351;28;20167;-62
2021/03/16 05:02:46;;;;;;;29.88;3.33;;;;;;;4.83;100.00;102235.44;5077361;28;20048;-62
2021/03/16 05:05:13;;;;;;;17.38;3.30;;;;;;;4.87;100.00;102239.72;5077128;28;20036;-63
2021/03/16 05:07:39;;;;;;;25.25;3.65;;;;;;;4.89;100.00;102240.50;5076539;28;20146;-63
2021/03/16 05:10:06;;;;;;;24.50;3.78;;;;;;;4.87;100.00;102247.72;5077203;28;20053;-62
2021/03/16 05:12:32;;;;;;;22.77;3.67;;;;;;;4.85;100.00;102244.22;5078757;28;20118;-62
2021/03/16 05:14:58;;;;;;;27.27;4.32;;;;;;;4.86;100.00;102245.97;5077251;28;20049;-62
2021/03/16 05:17:24;;;;;;;25.33;3.55;;;;;;;4.87;100.00;102239.72;5073542;28;20102;-63
2021/03/16 05:19:51;;;;;;;23.08;3.20;;;;;;;4.92;100.00;102250.19;5077988;28;20060;-62
2021/03/16 05:22:17;;;;;;;29.83;4.03;;;;;;;4.88;100.00;102253.91;5076818;28;20580;-63
2021/03/16 05:24:43;;;;;;;20.92;3.33;;;;;;;4.90;100.00;102257.38;5077293;28;20131;-62
2021/03/16 05:27:09;;;;;;;22.75;3.35;;;;;;;4.89;100.00;102251.19;5076644;28;20574;-63
2021/03/16 05:29:35;;;;;;;27.58;4.43;;;;;;;4.87;100.00;102258.38;5077520;28;20048;-63
2021/03/16 05:32:01;;;;;;;20.45;3.53;;;;;;;4.89;100.00;102264.50;5076058;28;20064;-63
2021/03/16 05:34:27;;;;;;;19.75;3.22;;;;;;;4.89;100.00;102267.19;5077850;28;20048;-62
2021/03/16 05:36:53;;;;;;;21.55;3.63;;;;;;;4.93;100.00;102264.38;5077646;28;21727;-62
2021/03/16 05:39:19;;;;;;;21.75;3.88;;;;;;;4.94;100.00;102263.47;5077198;28;20522;-62
2021/03/16 05:41:45;;;;;;;34.28;3.60;;;;;;;4.92;100.00;102263.53;5079098;28;20052;-63
2021/03/16 05:44:12;;;;;;;22.85;3.75;;;;;;;4.88;100.00;102267.25;5080448;28;20048;-62
2021/03/16 05:46:38;;;;;;;25.92;3.10;;;;;;;4.95;100.00;102267.84;5081309;28;20044;-62
2021/03/16 05:49:06;;;;;;;15.60;3.05;;;;;;;4.96;100.00;102256.25;5078036;28;20052;-62
2021/03/16 05:51:33;;;;;;;23.88;3.00;;;;;;;4.93;100.00;102269.72;5081403;28;20096;-63
2021/03/16 05:54:00;;;;;;;20.95;3.72;;;;;;;4.83;100.00;102261.22;5080878;28;20124;-62
2021/03/16 05:56:26;;;;;;;13.68;3.33;;;;;;;4.77;100.00;102275.72;5079574;28;20048;-63
2021/03/16 05:58:52;;;;;;;23.70;3.42;;;;;;;4.77;100.00;102275.72;5079789;28;20052;-64
2021/03/16 06:01:19;;;;;;;25.63;4.00;;;;;;;4.83;100.00;102266.56;5078595;28;20048;-62
2021/03/16 06:03:46;;;;;;;19.75;3.47;;;;;;;4.84;100.00;102266.50;5081585;28;20467;-62
2021/03/16 06:06:12;;;;;;;16.63;2.85;;;;;;;4.87;100.00;102274.41;5070542;28;20052;-63
2021/03/16 06:08:38;;;;;;;20.98;3.60;;;;;;;4.87;100.00;102273.50;5059351;28;20065;-62
2021/03/16 06:11:07;;;;;;;24.20;4.13;;;;;;;4.80;100.00;102277.34;5059008;28;20514;-62
2021/03/16 06:13:33;;;;;;;20.73;3.47;;;;;;;4.81;100.00;102268.44;5062257;28;20131;-63
2021/03/16 06:15:59;;;;;;;18.52;2.88;;;;;;;4.85;100.00;102270.06;5061470;28;20059;-62
2021/03/16 06:18:26;;;;;;;24.60;3.63;;;;;;;4.91;100.00;102275.97;5058975;22;20060;-62
2021/03/16 06:21:00;;;;;;;26.23;3.22;;;;;;;4.94;100.00;102268.78;5047516;28;20449;-62
2021/03/16 06:23:32;;;;;;;25.80;3.92;;;;;;;4.96;100.00;102266.91;5063656;28;20041;-63
2021/03/16 06:25:59;;;;;;;21.58;3.22;;;;;;;5.09;100.00;102262.78;5062206;28;20429;-64
2021/03/16 06:28:32;;;;;;;22.95;3.78;;;;;;;5.12;100.00;102262.66;5061277;28;20100;-64
2021/03/16 06:34:18;;;;;;;11.88;3.00;;;;;;;5.25;100.00;102269.19;5074487;22;20052;-62
2021/03/16 06:36:47;;;;;;;29.17;4.15;;;;;;;5.29;100.00;102274.44;5074791;28;20439;-62
2021/03/16 06:39:18;;;;;;;13.63;3.38;;;;;;;5.22;100.00;102274.66;5077298;28;20048;-63
2021/03/16 06:41:44;;;;;;;25.20;3.78;;;;;;;5.26;100.00;102275.41;5079020;28;20055;-62
2021/03/16 06:44:16;;;;;;;25.83;3.63;;;;;;;5.25;100.00;102279.88;5077130;28;20142;-64
2021/03/16 06:46:42;;;;;;;21.27;3.58;;;;;;;5.32;100.00;102282.31;5079075;28;20052;-62
2021/03/16 06:49:12;;;;;;;16.23;2.90;;;;;;;5.27;100.00;102287.84;5071928;28;20119;-62
2021/03/16 06:51:39;;;;;;;28.88;3.60;;;;;;;5.35;100.00;102284.84;5078212;28;20048;-63
2021/03/16 06:54:09;;;;;;;22.80;3.33;;;;;;;5.32;100.00;102280.50;5080468;28;20106;-63
2021/03/16 06:56:35;;;;;;;19.08;3.22;;;;;;;5.35;100.00;102285.69;5080445;28;20478;-63
2021/03/16 06:59:01;;;;;;;21.50;3.83;;;;;;;5.43;100.00;102280.00;5078509;28;20112;-63
2021/03/16 07:01:31;;;;;;;24.95;3.22;;;;;;;5.37;100.00;102277.63;5077928;28;20044;-62
2021/03/16 07:03:58;;;;;;;23.05;3.25;;;;;;;5.36;100.00;102283.88;5080232;28;20044;-64
2021/03/16 07:06:24;;;;;;;24.42;3.28;;;;;;;5.44;100.00;102289.75;5078130;28;20071;-63
2021/03/16 07:08:51;;;;;;;23.40;4.00;;;;;;;5.51;100.00;102285.88;5076313;28;20513;-63
2021/03/16 07:11:19;;;;;;;19.58;3.05;;;;;;;5.56;100.00;102283.88;5077743;28;20048;-63
2021/03/16 07:13:45;;;;;;;19.80;3.47;;;;;;;5.62;100.00;102290.75;5078019;28;20795;-62
2021/03/16 07:16:13;;;;;;;16.55;2.72;;;;;;;5.63;100.00;102284.47;5077895;28;20040;-63
2021/03/16 07:18:41;;;;;;;18.92;2.97;;;;;;;5.63;100.00;102280.94;5078998;28;20098;-62
2021/03/16 07:21:08;;;;;;;27.05;4.13;;;;;;;5.73;100.00;102290.28;5077688;28;20048;-62
2021/03/16 07:23:39;;;;;;;22.92;3.28;;;;;;;5.77;100.00;102295.41;5078999;28;20056;-62
2021/03/16 07:26:06;;;;;;;18.33;4.70;;;;;;;5.78;100.00;102290.91;5077522;28;20056;-62
2021/03/16 07:31:23;;;;;;;19.00;3.28;;;;;;;5.95;100.00;102285.66;5061281;23;20052;-62
2021/03/16 07:33:50;;;;;;;21.60;2.70;;;;;;;6.05;100.00;102293.28;5078238;28;20052;-63
2021/03/16 07:36:16;;;;;;;20.65;3.05;;;;;;;6.12;100.00;102300.97;5076783;28;20059;-63
2021/03/16 07:38:43;;;;;;;22.27;3.53;;;;;;;6.10;100.00;102299.31;5079902;28;20497;-62
2021/03/16 07:41:10;;;;;;;17.73;3.20;;;;;;;6.04;100.00;102305.78;5080418;28;20052;-63
2021/03/16 07:43:37;;;;;;;18.92;3.45;;;;;;;6.27;100.00;102309.19;5080743;28;20049;-63
2021/03/16 07:46:11;;;;;;;19.73;2.83;;;;;;;6.24;100.00;102309.34;5080390;28;20058;-62
2021/03/16 07:48:42;;;;;;;17.50;3.50;;;;;;;6.13;100.00;102309.84;5078796;28;20059;-63
2021/03/16 07:51:11;;;;;;;21.35;2.72;;;;;;;6.19;100.00;102309.56;5078192;28;20488;-63
2021/03/16 07:53:37;;;;;;;19.50;2.83;;;;;;;6.19;100.00;102306.88;5078748;28;20417;-63
2021/03/16 07:56:06;;;;;;;18.90;3.40;;;;;;;6.27;100.00;102320.78;5079549;28;20055;-62
2021/03/16 07:58:43;;;;;;;21.55;4.15;;;;;;;6.31;100.00;102314.31;5079429;28;20562;-63
2021/03/16 08:01:09;;;;;;;23.27;3.20;;;;;;;6.37;100.00;102306.97;5076329;28;20123;-64
2021/03/16 08:03:35;;;;;;;19.35;3.28;;;;;;;6.55;100.00;102311.44;5078973;28;20049;-63
2021/03/16 08:06:01;;;;;;;20.27;4.05;;;;;;;6.51;100.00;102312.50;5077077;28;20166;-63
2021/03/16 08:08:38;;;;;;;21.02;3.13;;;;;;;6.44;100.00;102321.78;5078415;28;20127;-62
2021/03/16 08:11:09;;;;;;;17.52;3.63;;;;;;;6.34;100.00;102320.47;5079108;28;20555;-62
2021/03/16 08:13:35;;;;;;;21.23;4.05;;;;;;;6.43;100.00;102322.69;5082336;28;20044;-63
2021/03/16 08:16:10;;;;;;;19.08;3.30;;;;;;;6.41;100.00;102317.44;5078852;22;20066;-63
2021/03/16 08:18:36;;;;;;;21.70;3.60;;;;;;;6.41;100.00;102316.56;5064038;28;20055;-63
2021/03/16 08:21:10;;;;;;;20.92;3.38;;;;;;;6.34;100.00;102324.00;5058314;28;20158;-64
2021/03/16 08:23:37;;;;;;;23.58;3.53;;;;;;;6.23;100.00;102327.19;5057327;28;20052;-62
2021/03/16 08:26:05;;;;;;;20.10;3.30;;;;;;;6.34;100.00;102326.69;5057272;28;20052;-64
2021/03/16 08:28:31;;;;;;;20.85;3.40;;;;;;;6.31;100.00;102330.34;5057462;28;20384;-63
2021/03/16 08:30:57;;;;;;;23.55;3.45;;;;;;;6.47;100.00;102329.66;5059112;28;20102;-63
2021/03/16 08:33:23;;;;;;;18.58;3.17;;;;;;;6.50;100.00;102332.16;5056345;28;20052;-62
2021/03/16 08:35:52;;;;;;;18.90;3.65;;;;;;;6.53;100.00;102340.03;5064888;28;20090;-63
2021/03/16 08:38:23;;;;;;;20.13;3.50;;;;;;;6.68;100.00;102332.22;5058875;28;20102;-63
2021/03/16 08:41:02;;;;;;;15.23;3.25;;;;;;;6.66;100.00;102334.97;5077237;28;20052;-62
2021/03/16 08:43:28;;;;;;;18.02;2.92;;;;;;;6.64;100.00;102337.72;5077747;28;20071;-63
2021/03/16 08:45:54;;;;;;;17.65;2.88;;;;;;;6.67;100.00;102347.44;5077281;28;20055;-63
2021/03/16 08:48:25;;;;;;;24.02;2.90;;;;;;;6.68;100.00;102346.47;5077350;28;20109;-63
2021/03/16 08:50:51;;;;;;;27.42;4.00;;;;;;;6.76;100.00;102340.75;5077050;28;20455;-63
2021/03/16 08:53:17;;;;;;;19.70;4.07;;;;;;;6.80;100.00;102343.22;5078254;28;20059;-64
2021/03/16 08:55:47;;;;;;;18.50;3.28;;;;;;;6.80;100.00;102347.69;5080600;28;20056;-63
2021/03/16 08:58:15;;;;;;;19.40;3.17;;;;;;;6.66;100.00;102343.88;5078159;28;20087;-63
2021/03/16 09:00:42;;;;;;;19.13;3.10;;;;;;;6.63;100.00;102346.69;5078079;28;20044;-63
2021/03/16 09:03:08;;;;;;;13.93;3.30;;;;;;;6.63;100.00;102346.69;5079172;28;20667;-63
2021/03/16 09:05:34;;;;;;;27.73;4.18;;;;;;;6.69;100.00;102344.69;5080784;28;20068;-62
2021/03/16 09:08:01;;;;;;;15.02;2.72;;;;;;;6.74;100.00;102343.47;5079662;28;20047;-63
2021/03/16 09:10:28;;;;;;;19.92;3.13;;;;;;;6.84;100.00;102349.28;5079990;28;20480;-62
2021/03/16 09:12:54;;;;;;;16.80;3.20;;;;;;;7.09;100.00;102345.38;5080079;28;20052;-63
2021/03/16 09:15:25;;;;;;;21.73;3.50;;;;;;;7.19;100.00;102355.53;5084253;28;20060;-62
2021/03/16 09:17:52;;;;;;;20.15;3.40;;;;;;;7.55;100.00;102353.72;5083901;28;20052;-63
2021/03/16 09:20:20;;;;;;;17.23;2.78;;;;;;;7.63;100.00;102364.06;5083353;28;20595;-63
2021/03/16 09:22:52;;;;;;;18.63;3.50;;;;;;;7.65;100.00;102360.34;5084473;28;20044;-63
2021/03/16 09:25:18;;;;;;;18.00;2.55;;;;;;;7.66;100.00;102359.41;5083963;28;20056;-63
2021/03/16 09:27:48;;;;;;;21.50;3.05;;;;;;;7.58;100.00;102361.59;5083004;28;20546;-63
2021/03/16 09:30:17;;;;;;;21.30;3.22;;;;;;;7.49;100.00;102359.41;5083096;28;20056;-63
2021/03/16 09:32:45;;;;;;;13.05;2.97;;;;;;;7.49;100.00;102356.75;5083017;28;20476;-62
2021/03/16 09:35:15;;;;;;;12.47;2.53;;;;;;;7.45;100.00;102371.22;5083172;28;20077;-62
2021/03/16 09:37:43;;;;;;;14.50;2.47;;;;;;;7.51;100.00;102360.22;5083547;28;20090;-62
2021/03/16 09:40:10;;;;;;;16.42;2.65;;;;;;;7.28;100.00;102361.38;5083412;28;20457;-63
2021/03/16 09:42:39;;;;;;;10.82;2.38;;;;;;;7.29;100.00;102350.59;5083592;28;20507;-62
2021/03/16 09:45:18;;;;;;;16.23;3.13;;;;;;;7.35;100.00;102360.13;5082176;28;20048;-62
2021/03/16 09:47:45;;;;;;;14.48;2.42;;;;;;;7.44;100.00;102353.44;5082737;28;20044;-63
2021/03/16 09:50:15;;;;;;;21.27;2.40;;;;;;;7.42;100.00;102352.63;5081800;28;20158;-64
2021/03/16 09:52:42;;;;;;;11.50;2.45;;;;;;;7.47;100.00;102347.94;5082352;28;20060;-64
2021/03/16 09:55:09;;;;;;;11.50;2.05;;;;;;;7.44;100.00;102348.09;5082885;28;20059;-63
2021/03/16 09:57:37;;;;;;;13.85;2.85;;;;;;;7.45;100.00;102348.00;5082831;28;20052;-63
2021/03/16 10:00:05;;;;;;;16.52;2.35;;;;;;;7.66;100.00;102354.06;5082334;28;20555;-64
2021/03/16 10:02:33;;;;;;;18.63;2.85;;;;;;;7.60;100.00;102357.06;5083125;28;20051;-62
2021/03/16 10:05:05;;;;;;;11.88;2.60;;;;;;;7.65;100.00;102359.50;5082564;28;20060;-63
2021/03/16 10:07:32;;;;;;;12.52;2.40;;;;;;;7.66;100.00;102361.22;5081941;28;20048;-62
2021/03/16 10:10:14;;;;;;;16.27;2.65;;;;;;;7.83;100.00;102349.59;5083273;28;20052;-62
2021/03/16 10:12:49;;;;;;;14.07;2.05;;;;;;;7.77;100.00;102349.94;5062855;28;20045;-62
2021/03/16 10:15:21;;;;;;;15.68;2.72;;;;;;;7.56;100.00;102351.94;5062572;28;20068;-62
2021/03/16 10:17:47;;;;;;;11.90;2.65;;;;;;;7.61;100.00;102353.44;5061721;28;20055;-63
2021/03/16 10:20:21;;;;;;;17.13;2.60;;;;;;;7.68;100.00;102356.66;5062430;28;20469;-63
2021/03/16 10:22:53;;;;;;;11.63;2.53;;;;;;;7.66;100.00;102348.69;5062633;28;20064;-63
2021/03/16 10:25:19;;;;;;;18.48;2.35;;;;;;;7.66;100.00;102351.38;5060465;28;20053;-63
2021/03/16 10:27:54;;;;;;;13.95;2.40;;;;;;;7.50;100.00;102345.94;5062631;28;20493;-62
2021/03/16 10:30:28;;;;;;;13.27;2.65;;;;;;;7.45;100.00;102347.13;5060991;28;20049;-63
2021/03/16 10:32:54;;;;;;;10.68;2.03;;;;;;;7.51;100.00;102349.50;5062693;28;20099;-63
2021/03/16 10:35:22;;;;;;;14.48;2.33;;;;;;;7.76;100.00;102348.19;5061269;28;20437;-62
2021/03/16 10:37:48;;;;;;;16.25;2.85;;;;;;;8.07;100.00;102342.09;5062375;28;20072;-62
2021/03/16 10:40:14;;;;;;;14.75;2.35;;;;;;;8.57;100.00;102340.25;5060896;28;20135;-64
2021/03/16 10:42:40;;;;;;;11.27;2.42;;;;;;;8.52;100.00;102336.97;5062534;28;20456;-63
2021/03/16 10:45:07;;;;;;;8.27;2.15;;;;;;;8.55;100.00;102331.41;5060886;28;20041;-63
2021/03/16 10:47:33;;;;;;;10.38;2.28;;;;;;;8.59;100.00;102333.84;5062382;28;20063;-64
2021/03/16 10:49:58;;;;;;;15.65;2.70;;;;;;;8.95;100.00;102334.50;5062365;28;20041;-63
2021/03/16 10:52:25;;;;;;;14.65;2.72;;;;;;;8.98;100.00;102336.13;5061342;28;20055;-63
2021/03/16 10:54:51;;;;;;;14.52;2.17;;;;;;;8.73;100.00;102337.56;5062403;28;20041;-64
2021/03/16 10:57:17;;;;;;;17.92;2.53;;;;;;;9.08;100.00;102330.16;5060937;28;20068;-63
2021/03/16 10:59:44;;;;;;;9.18;1.80;;;;;;;9.11;100.00;102332.66;5062068;28;20049;-62
2021/03/16 11:02:10;;;;;;;11.45;2.28;;;;;;;8.72;100.00;102335.84;5061106;28;20401;-63
2021/03/16 11:04:36;;;;;;;12.32;2.60;;;;;;;9.00;100.00;102334.25;5061567;28;20624;-63
2021/03/16 11:07:02;;;;;;;10.35;2.50;;;;;;;8.69;100.00;102336.88;5059347;28;20508;-63
2021/03/16 11:09:29;;;;;;;8.73;2.08;;;;;;;8.75;100.00;102338.34;5062368;28;20482;-62
2021/03/16 11:11:55;;;;;;;9.13;2.03;;;;;;;8.75;100.00;102335.66;5061628;28;20048;-64
2021/03/16 11:14:21;;;;;;;11.85;2.45;;;;;;;8.65;100.00;102331.78;5061474;28;20087;-63
2021/03/16 11:16:47;;;;;;;11.60;2.00;;;;;;;8.69;100.00;102330.66;5061810;28;20054;-63
2021/03/16 11:19:13;;;;;;;15.77;2.65;;;;;;;8.41;100.00;102330.34;5061455;28;20075;-63
2021/03/16 11:21:39;;;;;;;10.77;2.08;;;;;;;8.45;100.00;102325.72;5081084;28;20097;-63
2021/03/16 11:24:06;;;;;;;14.05;2.45;;;;;;;8.57;100.00;102332.22;5081206;28;20089;-63
2021/03/16 11:26:33;;;;;;;11.65;2.28;;;;;;;8.65;100.00;102329.94;5078750;28;20044;-62
2021/03/16 11:29:00;;;;;;;20.33;2.65;;;;;;;8.57;100.00;102330.38;5058967;28;20150;-63